sensor_id;sensor_type;location;lat;lon;timestamp;P1;durP1;ratioP1;P2;durP2;ratioP2
17528;SDS011;8882;53.192;8.184;2023-05-10T04:31:59;2.50;;;2.30;;
17528;SDS011;8882;53.192;8.184;2023-05-10T04:34:25;3.53;;;2.53;;
17528;SDS011;8882;53.192;8.184;2023-05-10T04:36:51;2.60;;;2.23;;
17528;SDS011;8882;53.192;8.184;2023-05-10T04:39:16;3.17;;;2.43;;
17528;SDS011;8882;53.192;8.184;2023-05-10T04:41:42;3.10;;;2.47;;
17528;SDS011;8882;53.192;8.184;2023-05-10T04:44:07;3.30;;;2.40;;
17528;SDS011;8882;53.192;8.184;2023-05-10T04:46:33;1.93;;;1.77;;
17528;SDS011;8882;53.192;8.184;2023-05-10T04:48:58;2.33;;;1.47;;
17528;SDS011;8882;53.192;8.184;2023-05-10T04:51:24;1.27;;;1.17;;
17528;SDS011;8882;53.192;8.184;2023-05-10T04:53:49;1.10;;;1.00;;
17528;SDS011;8882;53.192;8.184;2023-05-10T04:56:15;2.27;;;1.87;;
17528;SDS011;8882;53.192;8.184;2023-05-10T04:58:42;1.97;;;1.77;;
17528;SDS011;8882;53.192;8.184;2023-05-10T05:01:08;1.90;;;1.73;;
17528;SDS011;8882;53.192;8.184;2023-05-10T05:03:35;2.23;;;1.77;;
17528;SDS011;8882;53.192;8.184;2023-05-10T05:06:01;2.67;;;2.00;;
17528;SDS011;8882;53.192;8.184;2023-05-10T05:08:27;2.23;;;1.97;;
17528;SDS011;8882;53.192;8.184;2023-05-10T05:10:52;3.07;;;2.33;;
17528;SDS011;8882;53.192;8.184;2023-05-10T05:13:18;3.57;;;2.40;;
17528;SDS011;8882;53.192;8.184;2023-05-10T05:15:44;3.27;;;2.43;;
17528;SDS011;8882;53.192;8.184;2023-05-10T05:18:09;3.33;;;2.63;;
17528;SDS011;8882;53.192;8.184;2023-05-10T05:20:35;2.87;;;2.40;;
17528;SDS011;8882;53.192;8.184;2023-05-10T05:23:00;3.47;;;2.50;;
17528;SDS011;8882;53.192;8.184;2023-05-10T05:25:26;4.77;;;2.70;;
17528;SDS011;8882;53.192;8.184;2023-05-10T05:27:52;3.93;;;2.60;;
17528;SDS011;8882;53.192;8.184;2023-05-10T05:30:17;3.23;;;2.40;;
17528;SDS011;8882;53.192;8.184;2023-05-10T05:32:43;3.77;;;2.53;;
17528;SDS011;8882;53.192;8.184;2023-05-10T05:35:09;5.40;;;2.97;;
17528;SDS011;8882;53.192;8.184;2023-05-10T05:37:35;5.10;;;2.87;;
17528;SDS011;8882;53.192;8.184;2023-05-10T05:40:00;3.13;;;2.83;;
17528;SDS011;8882;53.192;8.184;2023-05-10T05:42:26;4.83;;;2.90;;
17528;SDS011;8882;53.192;8.184;2023-05-10T05:44:52;3.80;;;2.87;;
17528;SDS011;8882;53.192;8.184;2023-05-10T05:47:18;4.30;;;2.93;;
17528;SDS011;8882;53.192;8.184;2023-05-10T05:49:43;3.77;;;2.77;;
17528;SDS011;8882;53.192;8.184;2023-05-10T05:52:10;3.97;;;2.83;;
17528;SDS011;8882;53.192;8.184;2023-05-10T05:54:36;4.73;;;3.10;;
17528;SDS011;8882;53.192;8.184;2023-05-10T05:57:02;4.33;;;3.23;;
17528;SDS011;8882;53.192;8.184;2023-05-10T05:59:27;4.30;;;3.30;;
17528;SDS011;8882;53.192;8.184;2023-05-10T06:01:53;3.53;;;2.40;;
17528;SDS011;8882;53.192;8.184;2023-05-10T06:04:19;4.03;;;3.00;;
17528;SDS011;8882;53.192;8.184;2023-05-10T06:06:44;4.93;;;3.20;;
17528;SDS011;8882;53.192;8.184;2023-05-10T06:09:10;4.00;;;2.83;;
17528;SDS011;8882;53.192;8.184;2023-05-10T06:11:37;3.30;;;2.73;;
17528;SDS011;8882;53.192;8.184;2023-05-10T06:14:03;3.83;;;2.80;;
17528;SDS011;8882;53.192;8.184;2023-05-10T06:16:29;4.57;;;2.80;;
17528;SDS011;8882;53.192;8.184;2023-05-10T06:18:55;4.27;;;3.23;;
17528;SDS011;8882;53.192;8.184;2023-05-10T06:21:21;4.63;;;3.50;;
17528;SDS011;8882;53.192;8.184;2023-05-10T06:23:46;4.67;;;3.67;;
17528;SDS011;8882;53.192;8.184;2023-05-10T06:26:12;4.17;;;3.53;;
17528;SDS011;8882;53.192;8.184;2023-05-10T06:28:38;4.27;;;3.23;;
17528;SDS011;8882;53.192;8.184;2023-05-10T06:31:04;5.07;;;4.10;;
17528;SDS011;8882;53.192;8.184;2023-05-10T06:33:30;4.00;;;3.07;;
17528;SDS011;8882;53.192;8.184;2023-05-10T06:35:56;5.33;;;3.57;;
17528;SDS011;8882;53.192;8.184;2023-05-10T06:38:22;5.87;;;3.67;;
17528;SDS011;8882;53.192;8.184;2023-05-10T06:40:47;4.83;;;3.93;;
17528;SDS011;8882;53.192;8.184;2023-05-10T06:43:13;5.63;;;3.70;;
17528;SDS011;8882;53.192;8.184;2023-05-10T06:45:39;5.00;;;3.80;;
17528;SDS011;8882;53.192;8.184;2023-05-10T06:48:05;6.57;;;3.73;;
17528;SDS011;8882;53.192;8.184;2023-05-10T06:50:31;4.23;;;3.27;;
17528;SDS011;8882;53.192;8.184;2023-05-10T06:52:58;6.03;;;3.90;;
17528;SDS011;8882;53.192;8.184;2023-05-10T06:55:24;6.87;;;4.27;;
17528;SDS011;8882;53.192;8.184;2023-05-10T06:57:49;5.20;;;3.93;;
17528;SDS011;8882;53.192;8.184;2023-05-10T07:00:15;5.03;;;3.33;;
17528;SDS011;8882;53.192;8.184;2023-05-10T07:02:41;4.57;;;3.40;;
17528;SDS011;8882;53.192;8.184;2023-05-10T07:05:07;5.33;;;3.73;;
17528;SDS011;8882;53.192;8.184;2023-05-10T07:07:33;6.07;;;4.07;;
17528;SDS011;8882;53.192;8.184;2023-05-10T07:09:59;5.67;;;4.13;;
17528;SDS011;8882;53.192;8.184;2023-05-10T07:12:25;8.50;;;3.93;;
17528;SDS011;8882;53.192;8.184;2023-05-10T07:14:51;5.23;;;3.87;;
17528;SDS011;8882;53.192;8.184;2023-05-10T07:17:16;6.00;;;3.77;;
17528;SDS011;8882;53.192;8.184;2023-05-10T07:19:42;4.87;;;3.97;;
17528;SDS011;8882;53.192;8.184;2023-05-10T07:22:07;5.33;;;3.90;;
17528;SDS011;8882;53.192;8.184;2023-05-10T07:24:33;5.53;;;3.60;;
17528;SDS011;8882;53.192;8.184;2023-05-10T07:26:58;4.93;;;3.13;;
17528;SDS011;8882;53.192;8.184;2023-05-10T07:29:24;5.33;;;3.90;;
17528;SDS011;8882;53.192;8.184;2023-05-10T07:31:50;5.13;;;3.80;;
17528;SDS011;8882;53.192;8.184;2023-05-10T07:34:16;5.60;;;3.60;;
17528;SDS011;8882;53.192;8.184;2023-05-10T07:36:41;6.60;;;3.67;;
17528;SDS011;8882;53.192;8.184;2023-05-10T07:39:07;5.20;;;3.73;;
17528;SDS011;8882;53.192;8.184;2023-05-10T07:41:32;5.10;;;3.70;;
17528;SDS011;8882;53.192;8.184;2023-05-10T07:43:58;9.03;;;3.87;;
17528;SDS011;8882;53.192;8.184;2023-05-10T07:46:23;6.00;;;3.93;;
17528;SDS011;8882;53.192;8.184;2023-05-10T07:48:49;5.67;;;3.53;;
17528;SDS011;8882;53.192;8.184;2023-05-10T07:51:15;5.13;;;3.60;;
17528;SDS011;8882;53.192;8.184;2023-05-10T07:53:40;7.77;;;3.77;;
17528;SDS011;8882;53.192;8.184;2023-05-10T07:56:22;6.63;;;3.80;;
17528;SDS011;8882;53.192;8.184;2023-05-10T07:58:56;5.17;;;3.63;;
17528;SDS011;8882;53.192;8.184;2023-05-10T08:01:23;6.17;;;3.97;;
17528;SDS011;8882;53.192;8.184;2023-05-10T08:03:48;3.97;;;2.97;;
17528;SDS011;8882;53.192;8.184;2023-05-10T08:06:16;4.83;;;3.30;;
17528;SDS011;8882;53.192;8.184;2023-05-10T08:08:43;4.40;;;3.30;;
17528;SDS011;8882;53.192;8.184;2023-05-10T08:11:10;5.07;;;3.53;;
17528;SDS011;8882;53.192;8.184;2023-05-10T08:13:36;5.93;;;3.43;;
17528;SDS011;8882;53.192;8.184;2023-05-10T08:16:01;3.47;;;2.80;;
17528;SDS011;8882;53.192;8.184;2023-05-10T08:18:27;4.43;;;2.80;;
17528;SDS011;8882;53.192;8.184;2023-05-10T08:20:53;4.37;;;2.90;;
17528;SDS011;8882;53.192;8.184;2023-05-10T08:23:18;7.13;;;2.77;;
17528;SDS011;8882;53.192;8.184;2023-05-10T08:25:44;2.80;;;2.40;;
17528;SDS011;8882;53.192;8.184;2023-05-10T08:28:09;3.97;;;2.53;;
17528;SDS011;8882;53.192;8.184;2023-05-10T08:30:35;6.60;;;2.90;;
17528;SDS011;8882;53.192;8.184;2023-05-10T08:33:00;2.30;;;2.10;;
17528;SDS011;8882;53.192;8.184;2023-05-10T08:35:26;3.17;;;2.47;;
17528;SDS011;8882;53.192;8.184;2023-05-10T08:37:51;3.43;;;2.33;;
17528;SDS011;8882;53.192;8.184;2023-05-10T08:40:17;4.33;;;2.40;;
17528;SDS011;8882;53.192;8.184;2023-05-10T08:42:46;2.63;;;2.13;;
17528;SDS011;8882;53.192;8.184;2023-05-10T08:45:36;3.37;;;2.53;;
17528;SDS011;8882;53.192;8.184;2023-05-10T08:48:03;2.27;;;1.87;;
17528;SDS011;8882;53.192;8.184;2023-05-10T08:50:31;2.67;;;2.27;;
17528;SDS011;8882;53.192;8.184;2023-05-10T08:52:59;2.50;;;2.30;;
17528;SDS011;8882;53.192;8.184;2023-05-10T08:55:26;2.20;;;2.00;;
17528;SDS011;8882;53.192;8.184;2023-05-10T08:57:52;3.60;;;1.97;;
17528;SDS011;8882;53.192;8.184;2023-05-10T09:00:18;2.70;;;1.93;;
17528;SDS011;8882;53.192;8.184;2023-05-10T09:02:45;3.07;;;2.10;;
17528;SDS011;8882;53.192;8.184;2023-05-10T09:05:13;2.50;;;2.03;;
17528;SDS011;8882;53.192;8.184;2023-05-10T09:07:40;3.37;;;2.10;;
17528;SDS011;8882;53.192;8.184;2023-05-10T09:10:06;2.27;;;1.63;;
17528;SDS011;8882;53.192;8.184;2023-05-10T09:12:33;2.20;;;2.00;;
17528;SDS011;8882;53.192;8.184;2023-05-10T09:14:59;3.03;;;2.47;;
17528;SDS011;8882;53.192;8.184;2023-05-10T09:17:26;2.43;;;2.23;;
17528;SDS011;8882;53.192;8.184;2023-05-10T09:20:02;4.00;;;2.27;;
17528;SDS011;8882;53.192;8.184;2023-05-10T09:22:32;2.63;;;2.00;;
17528;SDS011;8882;53.192;8.184;2023-05-10T09:27:37;3.03;;;2.17;;
17528;SDS011;8882;53.192;8.184;2023-05-10T09:30:04;2.13;;;1.93;;
17528;SDS011;8882;53.192;8.184;2023-05-10T09:32:38;2.83;;;2.20;;
17528;SDS011;8882;53.192;8.184;2023-05-10T09:37:34;4.33;;;2.60;;
17528;SDS011;8882;53.192;8.184;2023-05-10T09:40:00;5.70;;;2.17;;
17528;SDS011;8882;53.192;8.184;2023-05-10T09:42:25;2.87;;;2.50;;
17528;SDS011;8882;53.192;8.184;2023-05-10T09:44:51;2.83;;;2.40;;
17528;SDS011;8882;53.192;8.184;2023-05-10T09:47:16;3.37;;;2.27;;
17528;SDS011;8882;53.192;8.184;2023-05-10T09:49:43;3.53;;;2.37;;
17528;SDS011;8882;53.192;8.184;2023-05-10T09:52:13;2.73;;;2.27;;
17528;SDS011;8882;53.192;8.184;2023-05-10T09:54:42;3.17;;;2.40;;
17528;SDS011;8882;53.192;8.184;2023-05-10T09:57:20;2.47;;;2.00;;
17528;SDS011;8882;53.192;8.184;2023-05-10T09:59:47;2.20;;;2.00;;
17528;SDS011;8882;53.192;8.184;2023-05-10T10:02:13;1.40;;;1.30;;
17528;SDS011;8882;53.192;8.184;2023-05-10T10:04:39;4.00;;;1.50;;
17528;SDS011;8882;53.192;8.184;2023-05-10T10:07:05;2.10;;;0.80;;
17528;SDS011;8882;53.192;8.184;2023-05-10T10:09:31;0.90;;;0.90;;
17528;SDS011;8882;53.192;8.184;2023-05-10T10:11:58;1.07;;;1.00;;
17528;SDS011;8882;53.192;8.184;2023-05-10T10:14:28;0.60;;;0.60;;
17528;SDS011;8882;53.192;8.184;2023-05-10T10:16:54;0.60;;;0.60;;
17528;SDS011;8882;53.192;8.184;2023-05-10T10:19:20;0.40;;;0.40;;
17528;SDS011;8882;53.192;8.184;2023-05-10T10:21:47;0.47;;;0.47;;
17528;SDS011;8882;53.192;8.184;2023-05-10T10:24:14;0.87;;;0.70;;
17528;SDS011;8882;53.192;8.184;2023-05-10T10:26:39;0.50;;;0.50;;
17528;SDS011;8882;53.192;8.184;2023-05-10T10:34:49;0.57;;;0.57;;
17528;SDS011;8882;53.192;8.184;2023-05-10T10:37:15;0.50;;;0.50;;
17528;SDS011;8882;53.192;8.184;2023-05-10T10:39:40;0.40;;;0.40;;
17528;SDS011;8882;53.192;8.184;2023-05-10T10:42:06;0.60;;;0.60;;
17528;SDS011;8882;53.192;8.184;2023-05-10T10:54:58;0.57;;;0.57;;
17528;SDS011;8882;53.192;8.184;2023-05-10T10:57:32;0.30;;;0.30;;
17528;SDS011;8882;53.192;8.184;2023-05-10T11:00:23;0.50;;;0.50;;
17528;SDS011;8882;53.192;8.184;2023-05-10T11:02:56;0.50;;;0.50;;
17528;SDS011;8882;53.192;8.184;2023-05-10T11:10:39;0.80;;;0.80;;
17528;SDS011;8882;53.192;8.184;2023-05-10T11:13:13;0.57;;;0.57;;
17528;SDS011;8882;53.192;8.184;2023-05-10T11:15:39;0.70;;;0.70;;
17528;SDS011;8882;53.192;8.184;2023-05-10T11:18:16;0.87;;;0.87;;
17528;SDS011;8882;53.192;8.184;2023-05-10T11:20:43;1.00;;;1.00;;
17528;SDS011;8882;53.192;8.184;2023-05-10T11:23:14;0.90;;;0.90;;
17528;SDS011;8882;53.192;8.184;2023-05-10T11:25:44;1.07;;;1.07;;
17528;SDS011;8882;53.192;8.184;2023-05-10T11:28:11;1.93;;;1.27;;
17528;SDS011;8882;53.192;8.184;2023-05-10T11:30:38;1.80;;;1.70;;
17528;SDS011;8882;53.192;8.184;2023-05-10T11:33:05;2.37;;;2.17;;
17528;SDS011;8882;53.192;8.184;2023-05-10T11:35:31;2.00;;;1.90;;
17528;SDS011;8882;53.192;8.184;2023-05-10T11:38:04;2.30;;;2.10;;
17528;SDS011;8882;53.192;8.184;2023-05-10T11:40:34;2.47;;;1.90;;
17528;SDS011;8882;53.192;8.184;2023-05-10T11:43:00;4.97;;;2.47;;
17528;SDS011;8882;53.192;8.184;2023-05-10T11:45:27;2.53;;;2.33;;
17528;SDS011;8882;53.192;8.184;2023-05-10T11:47:54;4.07;;;3.10;;
17528;SDS011;8882;53.192;8.184;2023-05-10T11:50:21;3.37;;;2.97;;
17528;SDS011;8882;53.192;8.184;2023-05-10T11:52:51;6.20;;;3.47;;
17528;SDS011;8882;53.192;8.184;2023-05-10T11:55:17;6.63;;;4.10;;
17528;SDS011;8882;53.192;8.184;2023-05-10T11:57:42;5.70;;;4.80;;
17528;SDS011;8882;53.192;8.184;2023-05-10T12:00:10;4.80;;;4.10;;
17528;SDS011;8882;53.192;8.184;2023-05-10T12:02:37;5.57;;;4.27;;
17528;SDS011;8882;53.192;8.184;2023-05-10T12:05:03;5.27;;;4.27;;
17528;SDS011;8882;53.192;8.184;2023-05-10T12:07:30;4.97;;;3.80;;
17528;SDS011;8882;53.192;8.184;2023-05-10T12:12:43;4.93;;;4.10;;
17528;SDS011;8882;53.192;8.184;2023-05-10T12:15:10;5.10;;;4.27;;
17528;SDS011;8882;53.192;8.184;2023-05-10T12:17:38;6.73;;;5.13;;
17528;SDS011;8882;53.192;8.184;2023-05-10T12:20:14;6.60;;;5.00;;
17528;SDS011;8882;53.192;8.184;2023-05-10T12:22:49;6.30;;;4.77;;
17528;SDS011;8882;53.192;8.184;2023-05-10T12:25:17;5.03;;;4.37;;
17528;SDS011;8882;53.192;8.184;2023-05-10T12:27:56;4.63;;;4.13;;
17528;SDS011;8882;53.192;8.184;2023-05-10T12:30:26;6.27;;;4.67;;
17528;SDS011;8882;53.192;8.184;2023-05-10T12:32:53;5.13;;;4.43;;
17528;SDS011;8882;53.192;8.184;2023-05-10T12:35:23;6.13;;;4.43;;
17528;SDS011;8882;53.192;8.184;2023-05-10T12:37:52;6.60;;;4.57;;
17528;SDS011;8882;53.192;8.184;2023-05-10T12:40:18;5.20;;;4.30;;
17528;SDS011;8882;53.192;8.184;2023-05-10T12:42:43;6.37;;;4.70;;
17528;SDS011;8882;53.192;8.184;2023-05-10T12:45:10;6.17;;;4.73;;
17528;SDS011;8882;53.192;8.184;2023-05-10T12:47:36;5.80;;;4.70;;
17528;SDS011;8882;53.192;8.184;2023-05-10T12:50:03;6.07;;;4.90;;
17528;SDS011;8882;53.192;8.184;2023-05-10T12:52:29;4.53;;;4.00;;
17528;SDS011;8882;53.192;8.184;2023-05-10T12:54:56;3.70;;;3.40;;
17528;SDS011;8882;53.192;8.184;2023-05-10T12:57:22;4.20;;;3.70;;
17528;SDS011;8882;53.192;8.184;2023-05-10T12:59:47;4.37;;;3.80;;
17528;SDS011;8882;53.192;8.184;2023-05-10T13:02:13;5.10;;;3.67;;
17528;SDS011;8882;53.192;8.184;2023-05-10T13:04:39;5.13;;;3.70;;
17528;SDS011;8882;53.192;8.184;2023-05-10T13:07:09;5.83;;;3.43;;
17528;SDS011;8882;53.192;8.184;2023-05-10T13:09:34;4.07;;;3.60;;
17528;SDS011;8882;53.192;8.184;2023-05-10T13:12:00;4.57;;;3.83;;
17528;SDS011;8882;53.192;8.184;2023-05-10T13:14:26;5.13;;;3.70;;
17528;SDS011;8882;53.192;8.184;2023-05-10T13:16:52;4.93;;;3.83;;
17528;SDS011;8882;53.192;8.184;2023-05-10T13:19:17;4.37;;;3.77;;
17528;SDS011;8882;53.192;8.184;2023-05-10T13:21:43;4.13;;;3.23;;
17528;SDS011;8882;53.192;8.184;2023-05-10T13:24:12;4.47;;;3.57;;
17528;SDS011;8882;53.192;8.184;2023-05-10T13:26:41;3.93;;;2.93;;
17528;SDS011;8882;53.192;8.184;2023-05-10T13:29:07;5.77;;;3.03;;
17528;SDS011;8882;53.192;8.184;2023-05-10T13:31:34;2.70;;;2.50;;
17528;SDS011;8882;53.192;8.184;2023-05-10T13:34:00;4.20;;;3.27;;
17528;SDS011;8882;53.192;8.184;2023-05-10T13:36:25;4.07;;;3.17;;
17528;SDS011;8882;53.192;8.184;2023-05-10T13:38:51;10.47;;;2.80;;
17528;SDS011;8882;53.192;8.184;2023-05-10T13:41:16;2.30;;;2.10;;
17528;SDS011;8882;53.192;8.184;2023-05-10T13:43:42;2.53;;;2.30;;
17528;SDS011;8882;53.192;8.184;2023-05-10T13:46:08;2.80;;;2.60;;
17528;SDS011;8882;53.192;8.184;2023-05-10T13:48:33;3.23;;;2.67;;
17528;SDS011;8882;53.192;8.184;2023-05-10T13:50:59;2.73;;;2.53;;
17528;SDS011;8882;53.192;8.184;2023-05-10T13:53:24;2.73;;;2.20;;
17528;SDS011;8882;53.192;8.184;2023-05-10T13:55:50;3.33;;;2.50;;
17528;SDS011;8882;53.192;8.184;2023-05-10T13:58:15;2.40;;;2.20;;
17528;SDS011;8882;53.192;8.184;2023-05-10T14:00:41;2.20;;;2.00;;
17528;SDS011;8882;53.192;8.184;2023-05-10T14:03:06;2.67;;;2.23;;
17528;SDS011;8882;53.192;8.184;2023-05-10T14:05:33;3.53;;;2.20;;
17528;SDS011;8882;53.192;8.184;2023-05-10T14:07:59;2.20;;;2.00;;
17528;SDS011;8882;53.192;8.184;2023-05-10T14:10:25;2.00;;;1.80;;
17528;SDS011;8882;53.192;8.184;2023-05-10T14:12:50;2.00;;;1.90;;
17528;SDS011;8882;53.192;8.184;2023-05-10T14:15:16;1.60;;;1.50;;
17528;SDS011;8882;53.192;8.184;2023-05-10T14:17:41;4.03;;;1.70;;
17528;SDS011;8882;53.192;8.184;2023-05-10T14:20:07;4.20;;;1.70;;
17528;SDS011;8882;53.192;8.184;2023-05-10T14:22:33;2.70;;;1.77;;
17528;SDS011;8882;53.192;8.184;2023-05-10T14:24:59;1.70;;;1.60;;
17528;SDS011;8882;53.192;8.184;2023-05-10T14:27:25;1.10;;;1.10;;
17528;SDS011;8882;53.192;8.184;2023-05-10T14:29:50;1.70;;;1.60;;
17528;SDS011;8882;53.192;8.184;2023-05-10T14:32:16;1.50;;;1.40;;
17528;SDS011;8882;53.192;8.184;2023-05-10T14:34:42;1.77;;;1.67;;
17528;SDS011;8882;53.192;8.184;2023-05-10T14:37:09;2.27;;;1.40;;
17528;SDS011;8882;53.192;8.184;2023-05-10T14:39:35;2.43;;;1.43;;
17528;SDS011;8882;53.192;8.184;2023-05-10T14:42:01;1.50;;;1.40;;
17528;SDS011;8882;53.192;8.184;2023-05-10T14:44:27;1.20;;;1.20;;
17528;SDS011;8882;53.192;8.184;2023-05-10T14:46:53;1.30;;;1.20;;
17528;SDS011;8882;53.192;8.184;2023-05-10T14:49:18;1.10;;;1.00;;
17528;SDS011;8882;53.192;8.184;2023-05-10T14:51:44;1.27;;;1.17;;
17528;SDS011;8882;53.192;8.184;2023-05-10T14:54:10;2.00;;;1.50;;
17528;SDS011;8882;53.192;8.184;2023-05-10T14:56:36;1.30;;;1.10;;
17528;SDS011;8882;53.192;8.184;2023-05-10T14:59:02;1.43;;;1.33;;
17528;SDS011;8882;53.192;8.184;2023-05-10T15:01:28;2.20;;;2.00;;
17528;SDS011;8882;53.192;8.184;2023-05-10T15:03:54;1.57;;;1.40;;
17528;SDS011;8882;53.192;8.184;2023-05-10T15:06:23;1.43;;;1.30;;
17528;SDS011;8882;53.192;8.184;2023-05-10T15:08:55;2.87;;;1.67;;
17528;SDS011;8882;53.192;8.184;2023-05-10T15:11:20;1.50;;;1.40;;
17528;SDS011;8882;53.192;8.184;2023-05-10T15:13:46;2.40;;;1.40;;
17528;SDS011;8882;53.192;8.184;2023-05-10T15:16:12;2.50;;;1.40;;
17528;SDS011;8882;53.192;8.184;2023-05-10T15:18:37;1.10;;;1.10;;
17528;SDS011;8882;53.192;8.184;2023-05-10T15:21:03;1.17;;;1.07;;
17528;SDS011;8882;53.192;8.184;2023-05-10T15:23:28;0.90;;;0.90;;
17528;SDS011;8882;53.192;8.184;2023-05-10T15:25:54;3.03;;;1.30;;
17528;SDS011;8882;53.192;8.184;2023-05-10T15:28:21;0.83;;;0.83;;
17528;SDS011;8882;53.192;8.184;2023-05-10T15:30:47;1.87;;;1.40;;
17528;SDS011;8882;53.192;8.184;2023-05-10T15:33:13;1.30;;;1.20;;
17528;SDS011;8882;53.192;8.184;2023-05-10T15:35:38;2.60;;;1.13;;
17528;SDS011;8882;53.192;8.184;2023-05-10T15:38:04;1.20;;;1.10;;
17528;SDS011;8882;53.192;8.184;2023-05-10T15:40:30;0.90;;;0.90;;
17528;SDS011;8882;53.192;8.184;2023-05-10T15:42:56;1.57;;;1.07;;
17528;SDS011;8882;53.192;8.184;2023-05-10T15:45:21;1.10;;;1.10;;
17528;SDS011;8882;53.192;8.184;2023-05-10T15:47:47;1.10;;;1.00;;
17528;SDS011;8882;53.192;8.184;2023-05-10T15:50:13;1.07;;;1.07;;
17528;SDS011;8882;53.192;8.184;2023-05-10T15:52:40;1.93;;;1.20;;
17528;SDS011;8882;53.192;8.184;2023-05-10T15:55:06;1.40;;;1.30;;
17528;SDS011;8882;53.192;8.184;2023-05-10T15:57:38;1.57;;;1.30;;
17528;SDS011;8882;53.192;8.184;2023-05-10T16:00:07;4.00;;;1.97;;
17528;SDS011;8882;53.192;8.184;2023-05-10T16:02:33;1.40;;;1.30;;
17528;SDS011;8882;53.192;8.184;2023-05-10T16:04:59;1.13;;;1.03;;
17528;SDS011;8882;53.192;8.184;2023-05-10T16:07:25;1.90;;;1.23;;
17528;SDS011;8882;53.192;8.184;2023-05-10T16:09:51;2.80;;;1.53;;
17528;SDS011;8882;53.192;8.184;2023-05-10T16:12:16;2.17;;;1.40;;
17528;SDS011;8882;53.192;8.184;2023-05-10T16:14:42;1.77;;;1.30;;
17528;SDS011;8882;53.192;8.184;2023-05-10T16:17:08;4.07;;;1.60;;
17528;SDS011;8882;53.192;8.184;2023-05-10T16:19:33;1.40;;;1.30;;
17528;SDS011;8882;53.192;8.184;2023-05-10T16:21:59;3.20;;;1.30;;
17528;SDS011;8882;53.192;8.184;2023-05-10T16:24:24;1.90;;;1.53;;
17528;SDS011;8882;53.192;8.184;2023-05-10T16:26:50;1.33;;;1.23;;
17528;SDS011;8882;53.192;8.184;2023-05-10T16:29:16;1.43;;;1.00;;
17528;SDS011;8882;53.192;8.184;2023-05-10T16:31:41;1.20;;;1.10;;
17528;SDS011;8882;53.192;8.184;2023-05-10T16:34:07;1.13;;;1.07;;
17528;SDS011;8882;53.192;8.184;2023-05-10T16:36:32;1.90;;;1.40;;
17528;SDS011;8882;53.192;8.184;2023-05-10T16:38:58;1.27;;;1.17;;
17528;SDS011;8882;53.192;8.184;2023-05-10T16:41:23;1.53;;;1.17;;
17528;SDS011;8882;53.192;8.184;2023-05-10T16:43:50;1.00;;;0.90;;
17528;SDS011;8882;53.192;8.184;2023-05-10T16:46:16;1.40;;;1.30;;
17528;SDS011;8882;53.192;8.184;2023-05-10T16:48:41;1.13;;;1.10;;
17528;SDS011;8882;53.192;8.184;2023-05-10T16:51:07;1.77;;;1.30;;
17528;SDS011;8882;53.192;8.184;2023-05-10T16:53:33;1.33;;;1.20;;
17528;SDS011;8882;53.192;8.184;2023-05-10T16:56:00;1.67;;;1.03;;
17528;SDS011;8882;53.192;8.184;2023-05-10T16:58:25;3.00;;;1.50;;
17528;SDS011;8882;53.192;8.184;2023-05-10T17:00:51;3.87;;;1.90;;
17528;SDS011;8882;53.192;8.184;2023-05-10T17:03:16;2.80;;;1.40;;
17528;SDS011;8882;53.192;8.184;2023-05-10T17:05:42;1.93;;;1.47;;
17528;SDS011;8882;53.192;8.184;2023-05-10T17:08:08;1.93;;;1.70;;
17528;SDS011;8882;53.192;8.184;2023-05-10T17:10:33;2.23;;;1.33;;
17528;SDS011;8882;53.192;8.184;2023-05-10T17:13:00;1.77;;;1.63;;
17528;SDS011;8882;53.192;8.184;2023-05-10T17:15:25;2.27;;;1.70;;
17528;SDS011;8882;53.192;8.184;2023-05-10T17:17:51;2.30;;;1.80;;
17528;SDS011;8882;53.192;8.184;2023-05-10T17:20:16;2.27;;;1.90;;
17528;SDS011;8882;53.192;8.184;2023-05-10T17:22:42;1.70;;;1.57;;
17528;SDS011;8882;53.192;8.184;2023-05-10T17:25:07;1.57;;;1.47;;
17528;SDS011;8882;53.192;8.184;2023-05-10T17:27:33;1.93;;;1.73;;
17528;SDS011;8882;53.192;8.184;2023-05-10T17:29:59;3.67;;;1.27;;
17528;SDS011;8882;53.192;8.184;2023-05-10T17:32:24;3.10;;;1.70;;
17528;SDS011;8882;53.192;8.184;2023-05-10T17:34:50;1.73;;;1.63;;
17528;SDS011;8882;53.192;8.184;2023-05-10T17:37:15;1.73;;;1.60;;
17528;SDS011;8882;53.192;8.184;2023-05-10T17:39:41;2.83;;;1.60;;
17528;SDS011;8882;53.192;8.184;2023-05-10T17:42:07;2.93;;;1.60;;
17528;SDS011;8882;53.192;8.184;2023-05-10T17:44:32;2.17;;;1.83;;
17528;SDS011;8882;53.192;8.184;2023-05-10T17:46:58;2.43;;;1.50;;
17528;SDS011;8882;53.192;8.184;2023-05-10T17:49:24;1.63;;;1.53;;
17528;SDS011;8882;53.192;8.184;2023-05-10T17:51:49;2.33;;;1.70;;
17528;SDS011;8882;53.192;8.184;2023-05-10T17:54:15;1.60;;;1.50;;
17528;SDS011;8882;53.192;8.184;2023-05-10T17:56:40;2.07;;;1.90;;
17528;SDS011;8882;53.192;8.184;2023-05-10T17:59:06;1.97;;;1.73;;
17528;SDS011;8882;53.192;8.184;2023-05-10T18:01:31;2.63;;;1.70;;
17528;SDS011;8882;53.192;8.184;2023-05-10T18:03:57;2.07;;;1.70;;
17528;SDS011;8882;53.192;8.184;2023-05-10T18:06:22;2.70;;;1.87;;
17528;SDS011;8882;53.192;8.184;2023-05-10T18:08:48;2.13;;;1.77;;
17528;SDS011;8882;53.192;8.184;2023-05-10T18:11:13;1.57;;;1.47;;
17528;SDS011;8882;53.192;8.184;2023-05-10T18:13:39;2.00;;;1.67;;
17528;SDS011;8882;53.192;8.184;2023-05-10T18:16:05;3.00;;;1.70;;
17528;SDS011;8882;53.192;8.184;2023-05-10T18:18:33;2.37;;;1.80;;
17528;SDS011;8882;53.192;8.184;2023-05-10T18:20:59;3.60;;;2.10;;
17528;SDS011;8882;53.192;8.184;2023-05-10T18:23:24;2.73;;;1.67;;
17528;SDS011;8882;53.192;8.184;2023-05-10T18:25:50;3.50;;;1.90;;
17528;SDS011;8882;53.192;8.184;2023-05-10T18:28:16;1.90;;;1.80;;
17528;SDS011;8882;53.192;8.184;2023-05-10T18:30:42;2.20;;;2.00;;
17528;SDS011;8882;53.192;8.184;2023-05-10T18:33:08;2.20;;;1.50;;
17528;SDS011;8882;53.192;8.184;2023-05-10T18:35:36;1.67;;;1.47;;
17528;SDS011;8882;53.192;8.184;2023-05-10T18:38:05;4.20;;;1.90;;
17528;SDS011;8882;53.192;8.184;2023-05-10T18:40:31;5.03;;;1.90;;
17528;SDS011;8882;53.192;8.184;2023-05-10T18:42:57;2.37;;;2.10;;
17528;SDS011;8882;53.192;8.184;2023-05-10T18:45:22;3.50;;;1.83;;
17528;SDS011;8882;53.192;8.184;2023-05-10T18:47:48;2.00;;;1.70;;
17528;SDS011;8882;53.192;8.184;2023-05-10T18:50:13;2.43;;;1.77;;
17528;SDS011;8882;53.192;8.184;2023-05-10T18:52:41;4.07;;;2.00;;
17528;SDS011;8882;53.192;8.184;2023-05-10T18:55:07;3.37;;;2.10;;
17528;SDS011;8882;53.192;8.184;2023-05-10T18:57:32;2.57;;;1.93;;
17528;SDS011;8882;53.192;8.184;2023-05-10T19:00:05;3.33;;;2.00;;
17528;SDS011;8882;53.192;8.184;2023-05-10T19:02:37;4.77;;;2.17;;
17528;SDS011;8882;53.192;8.184;2023-05-10T19:05:04;2.07;;;1.90;;
17528;SDS011;8882;53.192;8.184;2023-05-10T19:07:30;3.73;;;1.90;;
17528;SDS011;8882;53.192;8.184;2023-05-10T19:09:56;3.10;;;2.27;;
17528;SDS011;8882;53.192;8.184;2023-05-10T19:12:21;4.67;;;2.00;;
17528;SDS011;8882;53.192;8.184;2023-05-10T19:14:47;2.20;;;1.87;;
17528;SDS011;8882;53.192;8.184;2023-05-10T19:17:12;2.60;;;2.40;;
17528;SDS011;8882;53.192;8.184;2023-05-10T19:19:38;3.03;;;2.50;;
17528;SDS011;8882;53.192;8.184;2023-05-10T19:22:03;4.30;;;2.33;;
17528;SDS011;8882;53.192;8.184;2023-05-10T19:24:29;3.10;;;2.37;;
17528;SDS011;8882;53.192;8.184;2023-05-10T19:26:54;4.50;;;2.77;;
17528;SDS011;8882;53.192;8.184;2023-05-10T19:29:21;6.67;;;2.33;;
17528;SDS011;8882;53.192;8.184;2023-05-10T19:31:47;4.83;;;2.53;;
17528;SDS011;8882;53.192;8.184;2023-05-10T19:34:13;4.90;;;2.37;;
17528;SDS011;8882;53.192;8.184;2023-05-10T19:36:39;4.00;;;2.63;;
17528;SDS011;8882;53.192;8.184;2023-05-10T19:39:04;3.67;;;2.43;;
17528;SDS011;8882;53.192;8.184;2023-05-10T19:41:30;4.87;;;2.73;;
17528;SDS011;8882;53.192;8.184;2023-05-10T19:43:55;2.80;;;2.33;;
17528;SDS011;8882;53.192;8.184;2023-05-10T19:46:22;3.67;;;2.57;;
17528;SDS011;8882;53.192;8.184;2023-05-10T19:48:47;4.70;;;3.03;;
17528;SDS011;8882;53.192;8.184;2023-05-10T19:51:13;5.03;;;3.33;;
17528;SDS011;8882;53.192;8.184;2023-05-10T19:53:38;3.87;;;2.60;;
17528;SDS011;8882;53.192;8.184;2023-05-10T19:56:08;5.17;;;3.33;;